sensor_id;sensor_type;location;lat;lon;timestamp;pressure;altitude;pressure_sealevel;temperature;humidity
3434;BME280;1730;41.932;25.548;2023-02-19T00:00:31;99491.03;;;9.63;100.00
3434;BME280;1730;41.932;25.548;2023-02-19T00:02:56;99458.00;;;9.61;100.00
3434;BME280;1730;41.932;25.548;2023-02-19T00:05:23;99488.31;;;9.73;100.00
3434;BME280;1730;41.932;25.548;2023-02-19T00:07:48;99480.81;;;9.67;100.00
3434;BME280;1730;41.932;25.548;2023-02-19T00:10:14;99482.97;;;9.44;100.00
3434;BME280;1730;41.932;25.548;2023-02-19T00:12:39;99354.31;;;9.01;100.00
3434;BME280;1730;41.932;25.548;2023-02-19T00:15:05;99465.94;;;9.63;100.00
3434;BME280;1730;41.932;25.548;2023-02-19T00:17:31;99485.94;;;9.50;100.00
3434;BME280;1730;41.932;25.548;2023-02-19T00:19:56;99472.09;;;9.17;100.00
3434;BME280;1730;41.932;25.548;2023-02-19T00:22:22;99232.13;;;8.09;100.00
3434;BME280;1730;41.932;25.548;2023-02-19T00:24:48;99460.44;;;9.45;100.00
3434;BME280;1730;41.932;25.548;2023-02-19T00:27:13;99456.66;;;9.38;100.00
3434;BME280;1730;41.932;25.548;2023-02-19T00:29:39;99285.31;;;8.44;100.00
3434;BME280;1730;41.932;25.548;2023-02-19T00:32:05;99453.97;;;9.38;100.00
3434;BME280;1730;41.932;25.548;2023-02-19T00:34:32;99460.47;;;8.97;100.00
3434;BME280;1730;41.932;25.548;2023-02-19T00:36:58;99452.09;;;8.71;100.00
3434;BME280;1730;41.932;25.548;2023-02-19T00:39:23;99475.63;;;9.08;100.00
3434;BME280;1730;41.932;25.548;2023-02-19T00:41:49;99252.38;;;7.63;100.00
3434;BME280;1730;41.932;25.548;2023-02-19T00:44:14;99480.72;;;9.11;100.00
3434;BME280;1730;41.932;25.548;2023-02-19T00:46:45;99472.50;;;9.22;100.00
3434;BME280;1730;41.932;25.548;2023-02-19T00:49:17;99453.09;;;9.09;100.00
3434;BME280;1730;41.932;25.548;2023-02-19T00:51:43;99454.13;;;9.08;100.00
3434;BME280;1730;41.932;25.548;2023-02-19T00:54:09;99454.97;;;9.08;100.00
3434;BME280;1730;41.932;25.548;2023-02-19T00:56:35;99479.16;;;9.18;100.00
3434;BME280;1730;41.932;25.548;2023-02-19T00:59:00;99448.75;;;9.08;100.00
3434;BME280;1730;41.932;25.548;2023-02-19T01:01:26;99326.75;;;8.41;100.00
3434;BME280;1730;41.932;25.548;2023-02-19T01:03:51;99437.09;;;9.26;100.00
3434;BME280;1730;41.932;25.548;2023-02-19T01:06:19;99421.69;;;9.19;100.00
3434;BME280;1730;41.932;25.548;2023-02-19T01:08:45;99416.88;;;9.13;100.00
3434;BME280;1730;41.932;25.548;2023-02-19T01:11:11;99419.00;;;8.99;100.00
3434;BME280;1730;41.932;25.548;2023-02-19T01:13:37;99421.00;;;8.97;100.00
3434;BME280;1730;41.932;25.548;2023-02-19T01:18:30;99420.13;;;8.87;100.00
3434;BME280;1730;41.932;25.548;2023-02-19T01:20:55;99412.22;;;8.76;100.00
3434;BME280;1730;41.932;25.548;2023-02-19T01:23:21;99408.66;;;8.66;100.00
3434;BME280;1730;41.932;25.548;2023-02-19T01:25:47;99403.28;;;8.76;100.00
3434;BME280;1730;41.932;25.548;2023-02-19T01:28:12;99456.25;;;8.94;100.00
3434;BME280;1730;41.932;25.548;2023-02-19T01:30:38;99415.34;;;8.81;100.00
3434;BME280;1730;41.932;25.548;2023-02-19T01:33:05;99295.84;;;7.97;100.00
3434;BME280;1730;41.932;25.548;2023-02-19T01:35:31;99414.75;;;8.68;100.00
3434;BME280;1730;41.932;25.548;2023-02-19T01:37:57;99423.38;;;8.62;100.00
3434;BME280;1730;41.932;25.548;2023-02-19T01:40:23;99424.25;;;8.82;100.00
3434;BME280;1730;41.932;25.548;2023-02-19T01:42:48;99425.31;;;8.60;100.00
3434;BME280;1730;41.932;25.548;2023-02-19T01:50:28;99404.41;;;8.83;100.00
3434;BME280;1730;41.932;25.548;2023-02-19T01:52:54;99392.13;;;8.80;100.00
3434;BME280;1730;41.932;25.548;2023-02-19T01:55:20;99384.91;;;8.81;100.00
3434;BME280;1730;41.932;25.548;2023-02-19T01:57:48;99251.91;;;7.89;100.00
3434;BME280;1730;41.932;25.548;2023-02-19T02:00:17;99370.69;;;8.31;100.00
3434;BME280;1730;41.932;25.548;2023-02-19T02:02:48;99261.22;;;7.35;100.00
3434;BME280;1730;41.932;25.548;2023-02-19T02:05:23;99364.97;;;8.05;100.00
3434;BME280;1730;41.932;25.548;2023-02-19T02:07:49;99394.56;;;8.24;100.00
3434;BME280;1730;41.932;25.548;2023-02-19T02:10:33;99391.13;;;8.12;100.00
3434;BME280;1730;41.932;25.548;2023-02-19T02:12:59;99390.75;;;8.27;100.00
3434;BME280;1730;41.932;25.548;2023-02-19T02:15:44;99370.72;;;8.40;100.00
3434;BME280;1730;41.932;25.548;2023-02-19T02:26:50;99245.19;;;7.64;100.00
3434;BME280;1730;41.932;25.548;2023-02-19T02:32:25;99350.38;;;8.38;100.00
3434;BME280;1730;41.932;25.548;2023-02-19T02:34:55;99313.31;;;8.41;100.00
3434;BME280;1730;41.932;25.548;2023-02-19T02:37:24;99331.44;;;8.58;100.00
3434;BME280;1730;41.932;25.548;2023-02-19T02:39:53;99331.00;;;8.44;100.00
3434;BME280;1730;41.932;25.548;2023-02-19T02:42:21;99335.06;;;8.38;100.00
3434;BME280;1730;41.932;25.548;2023-02-19T02:44:56;99345.56;;;8.51;100.00
3434;BME280;1730;41.932;25.548;2023-02-19T02:47:56;99301.22;;;8.16;100.00
3434;BME280;1730;41.932;25.548;2023-02-19T02:50:25;99341.31;;;8.58;100.00
3434;BME280;1730;41.932;25.548;2023-02-19T02:52:59;99351.22;;;8.67;100.00
3434;BME280;1730;41.932;25.548;2023-02-19T02:55:53;99348.84;;;8.64;100.00
3434;BME280;1730;41.932;25.548;2023-02-19T02:58:22;99351.94;;;8.59;100.00
3434;BME280;1730;41.932;25.548;2023-02-19T03:00:54;99241.75;;;8.02;100.00
3434;BME280;1730;41.932;25.548;2023-02-19T03:03:42;99351.91;;;8.69;100.00
3434;BME280;1730;41.932;25.548;2023-02-19T03:06:12;99216.44;;;7.85;100.00
3434;BME280;1730;41.932;25.548;2023-02-19T03:08:44;99232.53;;;7.95;100.00
3434;BME280;1730;41.932;25.548;2023-02-19T03:11:12;99342.75;;;8.62;100.00
3434;BME280;1730;41.932;25.548;2023-02-19T03:14:29;99340.34;;;8.49;100.00
3434;BME280;1730;41.932;25.548;2023-02-19T03:17:19;99357.59;;;8.37;100.00
3434;BME280;1730;41.932;25.548;2023-02-19T03:20:08;99208.03;;;7.59;100.00
3434;BME280;1730;41.932;25.548;2023-02-19T03:22:35;99365.91;;;8.44;100.00
3434;BME280;1730;41.932;25.548;2023-02-19T03:25:13;99367.50;;;8.46;100.00
3434;BME280;1730;41.932;25.548;2023-02-19T03:28:00;99222.28;;;7.50;100.00
3434;BME280;1730;41.932;25.548;2023-02-19T03:30:32;99363.97;;;8.46;100.00
3434;BME280;1730;41.932;25.548;2023-02-19T03:33:04;99357.72;;;8.65;100.00
3434;BME280;1730;41.932;25.548;2023-02-19T03:35:35;99351.91;;;8.69;100.00
3434;BME280;1730;41.932;25.548;2023-02-19T03:38:21;99340.91;;;8.53;100.00
3434;BME280;1730;41.932;25.548;2023-02-19T03:43:56;99369.72;;;8.32;100.00
3434;BME280;1730;41.932;25.548;2023-02-19T03:49:09;99369.97;;;8.29;100.00
3434;BME280;1730;41.932;25.548;2023-02-19T03:51:43;99352.28;;;8.07;100.00
3434;BME280;1730;41.932;25.548;2023-02-19T03:54:21;99378.94;;;8.29;100.00
3434;BME280;1730;41.932;25.548;2023-02-19T03:56:57;99375.75;;;8.24;100.00
3434;BME280;1730;41.932;25.548;2023-02-19T03:59:33;99378.88;;;8.20;100.00
3434;BME280;1730;41.932;25.548;2023-02-19T04:04:37;99381.38;;;8.11;100.00
3434;BME280;1730;41.932;25.548;2023-02-19T04:07:05;99347.63;;;8.19;100.00
3434;BME280;1730;41.932;25.548;2023-02-19T04:09:42;99413.22;;;8.16;100.00
3434;BME280;1730;41.932;25.548;2023-02-19T04:12:09;99365.59;;;8.28;100.00
3434;BME280;1730;41.932;25.548;2023-02-19T04:14:39;99348.13;;;7.93;100.00
3434;BME280;1730;41.932;25.548;2023-02-19T04:17:21;99241.19;;;7.39;100.00
3434;BME280;1730;41.932;25.548;2023-02-19T04:19:50;99288.25;;;7.53;100.00
3434;BME280;1730;41.932;25.548;2023-02-19T04:22:18;99366.75;;;8.35;100.00
3434;BME280;1730;41.932;25.548;2023-02-19T04:24:49;99363.09;;;8.36;100.00
3434;BME280;1730;41.932;25.548;2023-02-19T04:27:16;99369.37;;;8.25;100.00
3434;BME280;1730;41.932;25.548;2023-02-19T04:29:42;99346.25;;;8.43;100.00
3434;BME280;1730;41.932;25.548;2023-02-19T04:32:09;99354.91;;;8.37;100.00
3434;BME280;1730;41.932;25.548;2023-02-19T04:34:35;99370.72;;;8.40;100.00
3434;BME280;1730;41.932;25.548;2023-02-19T04:37:01;99358.84;;;8.43;100.00
3434;BME280;1730;41.932;25.548;2023-02-19T04:39:26;99366.69;;;8.25;100.00
3434;BME280;1730;41.932;25.548;2023-02-19T04:41:52;98988.13;;;5.82;100.00
3434;BME280;1730;41.932;25.548;2023-02-19T04:44:17;99384.63;;;8.05;100.00
3434;BME280;1730;41.932;25.548;2023-02-19T04:46:43;99393.38;;;8.07;100.00
3434;BME280;1730;41.932;25.548;2023-02-19T04:49:08;99282.28;;;7.40;100.00
3434;BME280;1730;41.932;25.548;2023-02-19T04:51:34;99407.22;;;8.12;100.00
3434;BME280;1730;41.932;25.548;2023-02-19T04:54:00;99399.22;;;8.22;100.00
3434;BME280;1730;41.932;25.548;2023-02-19T04:56:25;99403.03;;;8.20;100.00
3434;BME280;1730;41.932;25.548;2023-02-19T04:58:51;99392.50;;;7.97;100.00
3434;BME280;1730;41.932;25.548;2023-02-19T05:01:16;99446.56;;;8.23;100.00
3434;BME280;1730;41.932;25.548;2023-02-19T05:03:42;99246.16;;;7.13;100.00
3434;BME280;1730;41.932;25.548;2023-02-19T05:06:12;99433.12;;;8.13;100.00
3434;BME280;1730;41.932;25.548;2023-02-19T05:08:38;99459.34;;;8.00;100.00
3434;BME280;1730;41.932;25.548;2023-02-19T05:11:06;99447.50;;;8.33;100.00
3434;BME280;1730;41.932;25.548;2023-02-19T05:13:32;99437.22;;;8.57;100.00
3434;BME280;1730;41.932;25.548;2023-02-19T05:16:03;99434.78;;;8.45;100.00
3434;BME280;1730;41.932;25.548;2023-02-19T05:18:30;99446.69;;;8.42;100.00
3434;BME280;1730;41.932;25.548;2023-02-19T05:20:57;99453.47;;;8.56;100.00
3434;BME280;1730;41.932;25.548;2023-02-19T05:23:23;99457.19;;;8.25;100.00
3434;BME280;1730;41.932;25.548;2023-02-19T05:25:49;99463.50;;;8.44;100.00
3434;BME280;1730;41.932;25.548;2023-02-19T05:28:15;99462.47;;;8.36;100.00
3434;BME280;1730;41.932;25.548;2023-02-19T05:30:51;99503.09;;;8.52;100.00
3434;BME280;1730;41.932;25.548;2023-02-19T05:33:19;99471.03;;;8.60;100.00
3434;BME280;1730;41.932;25.548;2023-02-19T05:35:46;99426.47;;;8.18;100.00
3434;BME280;1730;41.932;25.548;2023-02-19T05:38:12;99356.28;;;7.52;100.00
3434;BME280;1730;41.932;25.548;2023-02-19T05:40:38;99493.53;;;8.29;100.00
3434;BME280;1730;41.932;25.548;2023-02-19T05:43:04;99485.72;;;8.46;100.00
3434;BME280;1730;41.932;25.548;2023-02-19T05:45:30;99499.44;;;8.53;100.00
3434;BME280;1730;41.932;25.548;2023-02-19T05:47:56;99489.91;;;8.89;100.00
3434;BME280;1730;41.932;25.548;2023-02-19T05:50:22;99436.53;;;8.55;100.00
3434;BME280;1730;41.932;25.548;2023-02-19T05:52:47;99459.44;;;8.69;100.00
3434;BME280;1730;41.932;25.548;2023-02-19T05:55:13;99439.78;;;8.59;100.00
3434;BME280;1730;41.932;25.548;2023-02-19T05:57:44;99348.28;;;8.01;100.00
3434;BME280;1730;41.932;25.548;2023-02-19T06:00:11;99487.66;;;9.03;100.00
3434;BME280;1730;41.932;25.548;2023-02-19T06:02:37;99491.88;;;8.96;100.00
3434;BME280;1730;41.932;25.548;2023-02-19T06:05:03;99232.91;;;7.61;100.00
3434;BME280;1730;41.932;25.548;2023-02-19T06:07:30;99481.72;;;9.29;100.00
3434;BME280;1730;41.932;25.548;2023-02-19T06:09:55;99419.00;;;9.09;100.00
3434;BME280;1730;41.932;25.548;2023-02-19T06:12:21;99463.44;;;9.32;100.00
3434;BME280;1730;41.932;25.548;2023-02-19T06:14:47;99488.00;;;9.85;100.00
3434;BME280;1730;41.932;25.548;2023-02-19T06:17:12;99463.06;;;9.83;100.00
3434;BME280;1730;41.932;25.548;2023-02-19T06:19:38;99372.25;;;9.29;100.00
3434;BME280;1730;41.932;25.548;2023-02-19T06:22:03;99445.56;;;9.60;100.00
3434;BME280;1730;41.932;25.548;2023-02-19T06:24:29;99346.06;;;9.22;100.00
3434;BME280;1730;41.932;25.548;2023-02-19T06:26:54;99331.59;;;9.32;100.00
3434;BME280;1730;41.932;25.548;2023-02-19T06:29:20;99440.22;;;10.34;100.00
3434;BME280;1730;41.932;25.548;2023-02-19T06:31:46;99333.31;;;9.98;100.00
3434;BME280;1730;41.932;25.548;2023-02-19T06:34:11;99084.22;;;8.49;100.00
3434;BME280;1730;41.932;25.548;2023-02-19T06:36:37;99315.06;;;10.09;100.00
3434;BME280;1730;41.932;25.548;2023-02-19T06:39:03;99423.72;;;10.82;100.00
3434;BME280;1730;41.932;25.548;2023-02-19T06:41:29;99298.91;;;10.09;100.00
3434;BME280;1730;41.932;25.548;2023-02-19T06:43:58;99432.28;;;10.77;100.00
3434;BME280;1730;41.932;25.548;2023-02-19T06:46:24;99433.22;;;10.86;100.00
3434;BME280;1730;41.932;25.548;2023-02-19T06:48:50;99433.12;;;10.96;100.00
3434;BME280;1730;41.932;25.548;2023-02-19T06:51:17;99409.09;;;11.46;100.00
3434;BME280;1730;41.932;25.548;2023-02-19T06:53:44;99411.34;;;11.32;100.00
3434;BME280;1730;41.932;25.548;2023-02-19T06:56:32;99445.69;;;11.22;100.00
3434;BME280;1730;41.932;25.548;2023-02-19T06:59:00;99462.03;;;11.39;100.00
3434;BME280;1730;41.932;25.548;2023-02-19T07:01:28;99410.81;;;11.29;100.00
3434;BME280;1730;41.932;25.548;2023-02-19T07:03:54;99404.88;;;11.69;100.00
3434;BME280;1730;41.932;25.548;2023-02-19T07:06:21;99398.13;;;11.99;100.00
3434;BME280;1730;41.932;25.548;2023-02-19T07:08:48;99398.87;;;12.09;100.00
3434;BME280;1730;41.932;25.548;2023-02-19T07:11:14;99395.59;;;12.39;100.00
3434;BME280;1730;41.932;25.548;2023-02-19T07:13:39;99390.03;;;12.41;100.00
3434;BME280;1730;41.932;25.548;2023-02-19T07:16:07;99390.94;;;12.57;100.00
3434;BME280;1730;41.932;25.548;2023-02-19T07:18:33;99416.69;;;12.86;100.00
3434;BME280;1730;41.932;25.548;2023-02-19T07:21:10;99383.03;;;12.96;100.00
3434;BME280;1730;41.932;25.548;2023-02-19T07:23:37;99378.69;;;13.28;100.00
3434;BME280;1730;41.932;25.548;2023-02-19T07:26:03;99380.53;;;13.35;100.00
3434;BME280;1730;41.932;25.548;2023-02-19T07:28:29;99373.00;;;13.78;100.00
3434;BME280;1730;41.932;25.548;2023-02-19T07:30:59;99359.00;;;14.13;100.00
3434;BME280;1730;41.932;25.548;2023-02-19T07:33:25;99241.06;;;15.52;89.31
3434;BME280;1730;41.932;25.548;2023-02-19T07:35:51;99333.69;;;16.81;73.57
3434;BME280;1730;41.932;25.548;2023-02-19T07:38:20;99322.66;;;17.10;69.71
3434;BME280;1730;41.932;25.548;2023-02-19T07:40:56;99192.47;;;16.57;66.48
3434;BME280;1730;41.932;25.548;2023-02-19T07:43:23;99345.06;;;17.55;65.75
3434;BME280;1730;41.932;25.548;2023-02-19T07:45:49;99286.63;;;17.43;63.13
3434;BME280;1730;41.932;25.548;2023-02-19T07:48:15;99328.66;;;17.76;61.50
3434;BME280;1730;41.932;25.548;2023-02-19T07:50:40;99339.44;;;17.91;61.18
3434;BME280;1730;41.932;25.548;2023-02-19T07:53:07;99313.88;;;17.98;60.59
3434;BME280;1730;41.932;25.548;2023-02-19T07:55:33;99321.69;;;18.08;60.18
3434;BME280;1730;41.932;25.548;2023-02-19T07:57:59;99325.72;;;18.12;59.85
3434;BME280;1730;41.932;25.548;2023-02-19T08:00:26;99270.41;;;17.97;59.27
3434;BME280;1730;41.932;25.548;2023-02-19T08:02:52;99312.94;;;18.26;58.79
3434;BME280;1730;41.932;25.548;2023-02-19T08:05:32;99018.22;;;16.57;58.33
3434;BME280;1730;41.932;25.548;2023-02-19T08:07:58;99309.88;;;18.48;57.83
3434;BME280;1730;41.932;25.548;2023-02-19T08:10:25;99323.84;;;18.60;57.75
3434;BME280;1730;41.932;25.548;2023-02-19T08:13:14;99320.50;;;18.71;57.33
3434;BME280;1730;41.932;25.548;2023-02-19T08:16:09;99324.28;;;18.77;57.66
3434;BME280;1730;41.932;25.548;2023-02-19T08:18:36;99251.56;;;18.76;56.58
3434;BME280;1730;41.932;25.548;2023-02-19T08:21:01;99262.25;;;18.58;55.54
3434;BME280;1730;41.932;25.548;2023-02-19T08:23:27;99307.72;;;18.98;55.34
3434;BME280;1730;41.932;25.548;2023-02-19T08:25:56;99242.31;;;18.64;54.97
3434;BME280;1730;41.932;25.548;2023-02-19T08:28:24;99010.81;;;17.20;54.87
3434;BME280;1730;41.932;25.548;2023-02-19T08:30:50;99301.81;;;19.01;54.64
3434;BME280;1730;41.932;25.548;2023-02-19T08:33:19;99266.28;;;18.68;54.46
3434;BME280;1730;41.932;25.548;2023-02-19T08:35:45;99278.25;;;18.80;53.68
3434;BME280;1730;41.932;25.548;2023-02-19T08:38:12;98987.16;;;17.27;53.43
3434;BME280;1730;41.932;25.548;2023-02-19T08:40:38;99304.59;;;19.34;53.06
3434;BME280;1730;41.932;25.548;2023-02-19T08:43:08;99256.81;;;19.23;52.91
3434;BME280;1730;41.932;25.548;2023-02-19T08:45:36;99297.25;;;19.48;52.31
3434;BME280;1730;41.932;25.548;2023-02-19T08:48:02;99308.56;;;19.58;52.32
3434;BME280;1730;41.932;25.548;2023-02-19T08:50:28;99288.59;;;19.51;51.69
3434;BME280;1730;41.932;25.548;2023-02-19T08:52:53;99217.09;;;19.01;51.24
3434;BME280;1730;41.932;25.548;2023-02-19T08:55:19;99285.22;;;19.42;51.71
3434;BME280;1730;41.932;25.548;2023-02-19T08:57:44;99262.28;;;19.36;51.47
3434;BME280;1730;41.932;25.548;2023-02-19T09:00:11;99287.94;;;19.62;51.68
3434;BME280;1730;41.932;25.548;2023-02-19T09:02:36;99311.88;;;19.99;51.54
3434;BME280;1730;41.932;25.548;2023-02-19T09:05:02;98881.34;;;17.63;51.33
3434;BME280;1730;41.932;25.548;2023-02-19T09:07:30;99296.56;;;19.78;50.33
3434;BME280;1730;41.932;25.548;2023-02-19T09:09:55;99266.91;;;19.62;49.87
3434;BME280;1730;41.932;25.548;2023-02-19T09:12:21;99292.06;;;20.04;49.81
3434;BME280;1730;41.932;25.548;2023-02-19T09:14:47;99295.19;;;20.14;49.29
3434;BME280;1730;41.932;25.548;2023-02-19T09:17:13;99203.81;;;19.44;49.27
3434;BME280;1730;41.932;25.548;2023-02-19T09:19:38;99298.94;;;20.19;49.17
3434;BME280;1730;41.932;25.548;2023-02-19T09:22:04;99202.91;;;19.70;48.72
3434;BME280;1730;41.932;25.548;2023-02-19T09:24:30;99297.53;;;19.97;48.95
3434;BME280;1730;41.932;25.548;2023-02-19T09:26:56;99187.19;;;19.46;49.20
3434;BME280;1730;41.932;25.548;2023-02-19T09:29:24;99292.41;;;20.27;48.76
3434;BME280;1730;41.932;25.548;2023-02-19T09:31:49;99296.66;;;20.16;49.06
3434;BME280;1730;41.932;25.548;2023-02-19T09:34:15;99232.78;;;19.71;49.08
3434;BME280;1730;41.932;25.548;2023-02-19T09:36:40;99294.66;;;20.43;49.03
3434;BME280;1730;41.932;25.548;2023-02-19T09:39:08;99297.03;;;20.27;49.35
3434;BME280;1730;41.932;25.548;2023-02-19T09:41:42;99297.47;;;20.30;49.45
3434;BME280;1730;41.932;25.548;2023-02-19T09:44:13;99081.56;;;19.51;48.91
3434;BME280;1730;41.932;25.548;2023-02-19T09:46:48;99282.25;;;20.79;48.71
3434;BME280;1730;41.932;25.548;2023-02-19T09:49:22;99276.47;;;20.87;48.64
3434;BME280;1730;41.932;25.548;2023-02-19T09:51:59;99292.44;;;20.96;48.65
3434;BME280;1730;41.932;25.548;2023-02-19T09:54:29;99209.56;;;20.38;48.73
3434;BME280;1730;41.932;25.548;2023-02-19T09:56:59;99300.44;;;20.98;48.45
3434;BME280;1730;41.932;25.548;2023-02-19T09:59:29;99292.06;;;20.93;48.32
3434;BME280;1730;41.932;25.548;2023-02-19T10:02:36;99293.69;;;21.00;48.28
3434;BME280;1730;41.932;25.548;2023-02-19T10:04:56;99279.72;;;20.77;48.13
3434;BME280;1730;41.932;25.548;2023-02-19T10:07:24;99293.16;;;21.17;47.98
3434;BME280;1730;41.932;25.548;2023-02-19T10:10:00;99294.47;;;21.07;47.68
3434;BME280;1730;41.932;25.548;2023-02-19T10:12:29;99282.53;;;21.27;47.44
3434;BME280;1730;41.932;25.548;2023-02-19T10:15:11;99282.16;;;21.23;47.71
3434;BME280;1730;41.932;25.548;2023-02-19T10:17:40;99252.38;;;21.27;47.89
3434;BME280;1730;41.932;25.548;2023-02-19T10:20:05;99287.41;;;21.68;47.50
3434;BME280;1730;41.932;25.548;2023-02-19T10:22:32;99275.00;;;21.83;46.43
3434;BME280;1730;41.932;25.548;2023-02-19T10:25:00;99284.44;;;21.69;46.84
3434;BME280;1730;41.932;25.548;2023-02-19T10:27:29;99276.87;;;21.65;46.54
3434;BME280;1730;41.932;25.548;2023-02-19T10:29:59;99292.84;;;21.74;46.48
3434;BME280;1730;41.932;25.548;2023-02-19T10:32:26;99149.38;;;21.06;46.77
3434;BME280;1730;41.932;25.548;2023-02-19T10:35:11;99252.50;;;21.75;46.52
3434;BME280;1730;41.932;25.548;2023-02-19T10:37:45;98905.84;;;19.80;46.53
3434;BME280;1730;41.932;25.548;2023-02-19T10:40:18;99246.09;;;22.17;46.47
3434;BME280;1730;41.932;25.548;2023-02-19T10:42:47;99258.28;;;22.39;46.12
3434;BME280;1730;41.932;25.548;2023-02-19T10:45:22;99236.34;;;21.85;45.33
3434;BME280;1730;41.932;25.548;2023-02-19T10:47:49;99240.56;;;22.06;44.95
3434;BME280;1730;41.932;25.548;2023-02-19T10:50:24;99233.47;;;21.98;45.01
3434;BME280;1730;41.932;25.548;2023-02-19T10:52:52;99225.34;;;22.21;45.03
3434;BME280;1730;41.932;25.548;2023-02-19T10:57:47;99231.87;;;22.38;45.04
3434;BME280;1730;41.932;25.548;2023-02-19T11:02:44;99216.84;;;22.41;44.33
3434;BME280;1730;41.932;25.548;2023-02-19T11:08:01;99221.88;;;22.74;44.14
3434;BME280;1730;41.932;25.548;2023-02-19T11:10:29;99217.28;;;22.68;44.42
3434;BME280;1730;41.932;25.548;2023-02-19T11:12:59;99182.31;;;22.75;44.12
3434;BME280;1730;41.932;25.548;2023-02-19T11:15:33;99221.00;;;23.26;43.86
3434;BME280;1730;41.932;25.548;2023-02-19T11:18:22;99127.19;;;22.28;44.11
3434;BME280;1730;41.932;25.548;2023-02-19T11:23:44;99223.34;;;22.88;44.11
3434;BME280;1730;41.932;25.548;2023-02-19T11:26:19;99208.22;;;22.67;44.11
3434;BME280;1730;41.932;25.548;2023-02-19T11:28:58;99201.84;;;23.08;44.07
3434;BME280;1730;41.932;25.548;2023-02-19T11:31:28;99192.28;;;22.99;43.88
3434;BME280;1730;41.932;25.548;2023-02-19T11:36:26;99212.91;;;22.78;43.61
3434;BME280;1730;41.932;25.548;2023-02-19T11:38:53;99186.13;;;22.74;43.81
3434;BME280;1730;41.932;25.548;2023-02-19T11:44:25;99074.72;;;21.88;44.19
3434;BME280;1730;41.932;25.548;2023-02-19T11:52:16;99164.38;;;22.72;44.83
3434;BME280;1730;41.932;25.548;2023-02-19T11:57:36;99082.75;;;22.73;43.91
3434;BME280;1730;41.932;25.548;2023-02-19T12:06:07;99149.44;;;22.91;44.25
3434;BME280;1730;41.932;25.548;2023-02-19T12:09:28;99148.25;;;23.11;44.46
3434;BME280;1730;41.932;25.548;2023-02-19T12:20:05;99140.13;;;22.81;44.58
3434;BME280;1730;41.932;25.548;2023-02-19T12:27:53;99122.78;;;22.92;44.97
3434;BME280;1730;41.932;25.548;2023-02-19T12:38:47;99128.41;;;22.97;44.77
3434;BME280;1730;41.932;25.548;2023-02-19T12:41:20;98774.97;;;21.33;44.41
3434;BME280;1730;41.932;25.548;2023-02-19T12:43:59;99106.97;;;23.46;44.65
3434;BME280;1730;41.932;25.548;2023-02-19T12:46:45;99105.19;;;23.51;44.31
3434;BME280;1730;41.932;25.548;2023-02-19T12:49:18;99051.28;;;22.92;44.16
3434;BME280;1730;41.932;25.548;2023-02-19T12:51:49;99026.53;;;22.92;44.38
3434;BME280;1730;41.932;25.548;2023-02-19T12:54:29;99102.31;;;23.23;44.57
3434;BME280;1730;41.932;25.548;2023-02-19T12:57:04;99100.78;;;23.15;44.68
3434;BME280;1730;41.932;25.548;2023-02-19T12:59:36;99078.66;;;23.10;44.54
3434;BME280;1730;41.932;25.548;2023-02-19T13:02:32;99097.53;;;22.95;45.03
3434;BME280;1730;41.932;25.548;2023-02-19T13:12:44;99087.94;;;23.32;44.25
3434;BME280;1730;41.932;25.548;2023-02-19T13:15:19;99041.09;;;23.04;44.10
3434;BME280;1730;41.932;25.548;2023-02-19T13:17:54;99087.47;;;23.47;43.97
3434;BME280;1730;41.932;25.548;2023-02-19T13:20:33;99065.94;;;23.32;44.30
3434;BME280;1730;41.932;25.548;2023-02-19T13:23:14;99091.12;;;23.64;43.80
3434;BME280;1730;41.932;25.548;2023-02-19T13:34:32;99058.94;;;24.10;42.90
3434;BME280;1730;41.932;25.548;2023-02-19T13:37:04;99054.41;;;24.15;43.16
3434;BME280;1730;41.932;25.548;2023-02-19T13:39:30;99053.56;;;23.58;43.58
3434;BME280;1730;41.932;25.548;2023-02-19T13:41:56;98960.72;;;23.42;43.45
3434;BME280;1730;41.932;25.548;2023-02-19T13:44:27;99050.13;;;23.79;43.34
3434;BME280;1730;41.932;25.548;2023-02-19T13:46:53;99044.72;;;24.01;43.18
3434;BME280;1730;41.932;25.548;2023-02-19T13:51:56;99045.91;;;24.34;42.48
3434;BME280;1730;41.932;25.548;2023-02-19T13:54:31;99036.12;;;24.43;42.51
3434;BME280;1730;41.932;25.548;2023-02-19T13:59:52;99034.56;;;24.02;42.75
3434;BME280;1730;41.932;25.548;2023-02-19T14:04:55;99033.78;;;23.90;42.67
3434;BME280;1730;41.932;25.548;2023-02-19T14:09:50;99017.34;;;23.78;42.56
3434;BME280;1730;41.932;25.548;2023-02-19T14:14:52;99007.63;;;23.35;42.78
3434;BME280;1730;41.932;25.548;2023-02-19T14:17:37;99023.44;;;23.52;42.78
3434;BME280;1730;41.932;25.548;2023-02-19T14:27:53;99000.16;;;23.19;43.73
3434;BME280;1730;41.932;25.548;2023-02-19T14:30:20;98998.91;;;23.39;44.03
3434;BME280;1730;41.932;25.548;2023-02-19T14:32:47;98991.50;;;23.27;44.26
3434;BME280;1730;41.932;25.548;2023-02-19T14:35:18;98983.97;;;22.95;44.73
3434;BME280;1730;41.932;25.548;2023-02-19T14:37:44;98978.00;;;22.86;45.27
3434;BME280;1730;41.932;25.548;2023-02-19T14:40:19;98980.72;;;22.98;45.59
3434;BME280;1730;41.932;25.548;2023-02-19T14:42:47;98977.63;;;22.82;46.23
3434;BME280;1730;41.932;25.548;2023-02-19T14:45:14;98973.69;;;22.78;46.84
3434;BME280;1730;41.932;25.548;2023-02-19T14:47:42;98983.72;;;22.61;47.99
3434;BME280;1730;41.932;25.548;2023-02-19T14:50:15;98979.91;;;22.39;48.27
3434;BME280;1730;41.932;25.548;2023-02-19T14:52:47;98975.25;;;22.39;48.46
3434;BME280;1730;41.932;25.548;2023-02-19T14:57:42;98977.59;;;22.01;49.73
3434;BME280;1730;41.932;25.548;2023-02-19T15:02:48;98980.69;;;21.93;51.92
3434;BME280;1730;41.932;25.548;2023-02-19T15:05:16;98965.69;;;21.66;53.70
3434;BME280;1730;41.932;25.548;2023-02-19T15:07:42;98990.75;;;21.69;54.44
3434;BME280;1730;41.932;25.548;2023-02-19T15:10:11;98945.69;;;21.47;55.97
3434;BME280;1730;41.932;25.548;2023-02-19T15:12:46;98971.03;;;21.31;58.42
3434;BME280;1730;41.932;25.548;2023-02-19T15:15:22;98869.66;;;20.76;59.70
3434;BME280;1730;41.932;25.548;2023-02-19T15:17:50;98964.41;;;21.20;61.19
3434;BME280;1730;41.932;25.548;2023-02-19T15:20:21;98865.50;;;20.37;63.85
3434;BME280;1730;41.932;25.548;2023-02-19T15:22:48;98962.91;;;20.69;67.29
3434;BME280;1730;41.932;25.548;2023-02-19T15:25:16;98967.00;;;20.42;72.20